Time;durP1;ratioP1;P1;durP2;ratioP2;P2;SDS_P1;SDS_P2;PMS_P1;PMS_P2;Temp;Humidity;BMP_temperature;BMP_pressure;BME280_temperature;BME280_humidity;BME280_pressure;Samples;Min_cycle;Max_cycle;Signal;HPM_P1;HPM_P2
2021/04/05 00:01:49;;;;;;;6.65;5.20;;;4.50;87.80;;;;;;5023982;28;20275;-72
2021/04/05 00:04:15;;;;;;;9.95;6.25;;;4.40;88.30;;;;;;5025271;28;20205;-72
2021/04/05 00:06:41;;;;;;;5.32;4.82;;;4.20;88.90;;;;;;5024400;28;20206;-72
2021/04/05 00:09:08;;;;;;;7.78;5.25;;;4.10;88.80;;;;;;5024549;28;20233;-72
2021/04/05 00:11:35;;;;;;;8.95;5.43;;;4.10;88.90;;;;;;5025071;28;20205;-72
2021/04/05 00:14:02;;;;;;;7.78;5.82;;;3.90;90.00;;;;;;5025252;28;20216;-73
2021/04/05 00:16:28;;;;;;;7.20;5.53;;;3.80;90.10;;;;;;5027547;28;20205;-72
2021/04/05 00:18:54;;;;;;;5.13;4.20;;;3.70;90.30;;;;;;5026759;28;20740;-72
2021/04/05 00:21:22;;;;;;;9.10;5.88;;;3.70;90.60;;;;;;5027367;28;20222;-72
2021/04/05 00:23:49;;;;;;;9.07;5.72;;;3.60;90.70;;;;;;5026952;28;20552;-72
2021/04/05 00:26:16;;;;;;;10.32;5.30;;;3.60;90.90;;;;;;5026960;28;20206;-72
2021/04/05 00:28:43;;;;;;;7.30;5.55;;;3.50;91.10;;;;;;5026436;28;20232;-72
2021/04/05 00:31:10;;;;;;;6.60;4.88;;;3.50;91.10;;;;;;5027908;28;20197;-72
2021/04/05 00:33:36;;;;;;;5.50;4.28;;;3.50;90.90;;;;;;5027664;28;20279;-72
2021/04/05 00:36:03;;;;;;;13.02;5.03;;;3.50;91.00;;;;;;5027767;28;20208;-72
2021/04/05 00:38:29;;;;;;;6.68;4.40;;;3.40;91.30;;;;;;5026487;28;20592;-72
2021/04/05 00:41:00;;;;;;;7.63;4.40;;;3.40;91.40;;;;;;5027639;28;20222;-72
2021/04/05 00:43:26;;;;;;;7.00;4.95;;;3.40;91.40;;;;;;5027305;28;20691;-72
2021/04/05 00:45:54;;;;;;;9.20;5.38;;;3.30;91.70;;;;;;5027353;28;20205;-73
2021/04/05 00:48:20;;;;;;;7.65;5.68;;;3.20;91.90;;;;;;5026818;28;20230;-72
2021/04/05 00:50:52;;;;;;;8.10;5.63;;;3.20;92.10;;;;;;5027210;28;20205;-72
2021/04/05 00:53:20;;;;;;;7.50;5.30;;;3.20;92.10;;;;;;5021958;28;20205;-72
2021/04/05 00:55:47;;;;;;;6.55;5.00;;;3.20;92.10;;;;;;5014420;28;20213;-72
2021/04/05 00:58:14;;;;;;;9.60;4.78;;;3.30;92.20;;;;;;5009197;28;20227;-72
2021/04/05 01:00:42;;;;;;;5.85;5.13;;;3.30;92.20;;;;;;5005286;28;20222;-72
2021/04/05 01:03:11;;;;;;;7.00;4.80;;;3.40;92.00;;;;;;5007498;28;20289;-72
2021/04/05 01:05:38;;;;;;;7.15;5.05;;;3.40;91.90;;;;;;5006908;28;20221;-72
2021/04/05 01:08:04;;;;;;;9.30;4.90;;;3.50;91.90;;;;;;5007420;28;20223;-72
2021/04/05 01:10:32;;;;;;;6.30;4.38;;;3.60;91.80;;;;;;5006880;28;20199;-72
2021/04/05 01:12:58;;;;;;;8.07;5.10;;;3.70;91.60;;;;;;5006602;28;20202;-72
2021/04/05 01:15:25;;;;;;;7.70;5.10;;;3.90;91.50;;;;;;5007023;28;20207;-72
2021/04/05 01:17:51;;;;;;;7.18;5.18;;;4.00;91.20;;;;;;5007995;28;20253;-72
2021/04/05 01:20:20;;;;;;;12.32;5.32;;;4.10;91.10;;;;;;5007605;28;20219;-72
2021/04/05 01:22:49;;;;;;;8.20;4.25;;;4.10;91.00;;;;;;5007305;28;20574;-73
2021/04/05 01:25:17;;;;;;;7.45;4.00;;;4.10;90.90;;;;;;5009978;28;20207;-73
2021/04/05 01:27:44;;;;;;;7.45;5.38;;;4.20;90.80;;;;;;5009641;28;20652;-72
2021/04/05 01:30:27;;;;;;;7.40;4.63;;;4.20;90.70;;;;;;5143932;22;20224;-94
2021/04/05 01:33:01;;;;;;;8.90;5.65;;;4.20;90.60;;;;;;5073850;28;20193;-94
2021/04/05 01:35:27;;;;;;;5.80;5.20;;;4.20;90.60;;;;;;5077379;28;20205;-93
2021/04/05 01:37:57;;;;;;;7.97;5.10;;;4.20;90.60;;;;;;5077263;28;20185;-93
2021/04/05 01:40:24;;;;;;;6.65;4.55;;;4.20;90.60;;;;;;5077218;28;20200;-94
2021/04/05 01:42:51;;;;;;;6.20;5.03;;;4.20;90.70;;;;;;5076931;28;20196;-93
2021/04/05 01:45:18;;;;;;;7.15;4.60;;;4.10;90.60;;;;;;5074423;28;20215;-94
2021/04/05 01:47:45;;;;;;;7.32;4.40;;;4.10;90.70;;;;;;5066301;28;20296;-92
2021/04/05 01:50:13;;;;;;;10.30;5.05;;;4.10;90.80;;;;;;5064357;28;20289;-92
2021/04/05 01:52:40;;;;;;;4.93;4.00;;;4.00;90.90;;;;;;5065791;28;20202;-92
2021/04/05 01:55:10;;;;;;;6.70;4.07;;;4.00;91.00;;;;;;5065110;28;20211;-92
2021/04/05 01:57:37;;;;;;;5.72;4.50;;;3.90;91.10;;;;;;5064756;28;20648;-92
2021/04/05 02:00:08;;;;;;;6.80;3.95;;;3.90;91.00;;;;;;5066884;28;20268;-93
2021/04/05 02:02:35;;;;;;;6.10;5.30;;;3.80;91.20;;;;;;5073263;28;20231;-95
2021/04/05 02:05:03;;;;;;;6.10;4.85;;;3.70;91.30;;;;;;5072730;28;20213;-93
2021/04/05 02:07:30;;;;;;;5.20;4.63;;;3.70;91.40;;;;;;5071989;28;20268;-93
2021/04/05 02:09:56;;;;;;;6.95;4.05;;;3.70;91.50;;;;;;5069240;28;20229;-92
2021/04/05 02:12:24;;;;;;;4.60;3.78;;;3.70;91.60;;;;;;5070974;28;20233;-93
2021/04/05 02:14:50;;;;;;;6.53;4.28;;;3.70;91.60;;;;;;5068430;28;20229;-91
2021/04/05 02:17:18;;;;;;;5.47;4.40;;;3.70;91.60;;;;;;5068677;28;20205;-92
2021/04/05 02:19:45;;;;;;;7.50;4.45;;;3.70;91.60;;;;;;5067907;28;20319;-93
2021/04/05 02:22:12;;;;;;;7.65;4.65;;;3.70;91.80;;;;;;5068916;28;20311;-92
2021/04/05 02:24:41;;;;;;;5.03;3.85;;;3.60;92.00;;;;;;5068993;28;20213;-92
2021/04/05 02:27:09;;;;;;;5.80;5.15;;;3.50;92.20;;;;;;5069601;28;20607;-92
2021/04/05 02:29:36;;;;;;;8.55;4.35;;;3.40;92.40;;;;;;5069551;28;20236;-92
2021/04/05 02:32:03;;;;;;;5.53;5.03;;;3.40;92.60;;;;;;5067931;28;20219;-92
2021/04/05 02:34:30;;;;;;;6.53;3.88;;;3.40;92.60;;;;;;5064959;28;20204;-92
2021/04/05 02:36:56;;;;;;;6.25;4.20;;;3.40;92.60;;;;;;5064674;28;20201;-92
2021/04/05 02:39:23;;;;;;;7.93;4.55;;;3.50;92.50;;;;;;5065700;28;20320;-92
2021/04/05 02:41:50;;;;;;;7.85;4.65;;;3.50;92.40;;;;;;5066025;28;20231;-92
2021/04/05 02:44:19;;;;;;;6.60;5.63;;;3.60;92.40;;;;;;5065495;28;20201;-91
2021/04/05 02:46:48;;;;;;;7.95;4.70;;;3.60;92.40;;;;;;5063308;28;20223;-92
2021/04/05 02:49:21;;;;;;;9.85;3.80;;;3.60;92.50;;;;;;5062498;28;20224;-92
2021/04/05 02:54:30;;;;;;;8.10;4.30;;;3.50;92.60;;;;;;5045932;28;20294;-93
2021/04/05 02:56:57;;;;;;;8.50;4.97;;;3.40;92.90;;;;;;5064634;28;20211;-93
2021/04/05 02:59:24;;;;;;;7.47;4.50;;;3.30;93.10;;;;;;5065578;28;20293;-93
2021/04/05 03:01:55;;;;;;;6.47;4.65;;;3.20;93.10;;;;;;5065822;28;20275;-92
2021/04/05 03:04:22;;;;;;;7.05;4.55;;;3.10;93.10;;;;;;5066263;28;20225;-91
2021/04/05 03:06:50;;;;;;;7.47;4.70;;;2.90;93.50;;;;;;5065353;28;20729;-94
2021/04/05 03:09:17;;;;;;;7.15;4.32;;;2.80;93.80;;;;;;5064119;28;20266;-92
2021/04/05 03:11:47;;;;;;;5.80;4.68;;;2.70;93.90;;;;;;5063960;28;20201;-93
2021/04/05 03:14:16;;;;;;;6.78;4.82;;;2.70;94.10;;;;;;5064301;28;20713;-92
2021/04/05 03:16:43;;;;;;;6.65;4.43;;;2.60;94.20;;;;;;5064128;28;20224;-93
2021/04/05 03:19:13;;;;;;;7.50;5.05;;;2.50;94.60;;;;;;5065449;28;20239;-92
2021/04/05 03:21:42;;;;;;;7.78;4.40;;;2.40;94.70;;;;;;5066761;28;20259;-93
2021/04/05 03:24:10;;;;;;;10.38;5.70;;;2.40;95.00;;;;;;5067707;28;20204;-92
2021/04/05 03:26:36;;;;;;;8.35;4.65;;;2.30;95.20;;;;;;5069407;28;20296;-92
2021/04/05 03:32:38;;;;;;;7.40;5.15;;;2.20;95.80;;;;;;5044652;28;20207;-91
2021/04/05 03:35:09;;;;;;;6.82;4.55;;;2.10;95.80;;;;;;5070070;28;20335;-93
2021/04/05 03:37:37;;;;;;;6.15;4.30;;;2.10;96.30;;;;;;5070756;28;20661;-92
2021/04/05 03:40:05;;;;;;;5.55;4.47;;;2.00;96.50;;;;;;5070716;28;20239;-92
2021/04/05 03:42:35;;;;;;;8.68;4.93;;;2.00;96.70;;;;;;5068005;28;20224;-93
2021/04/05 03:45:06;;;;;;;9.80;4.88;;;2.00;96.90;;;;;;5069659;28;20207;-92
2021/04/05 03:47:47;;;;;;;12.68;5.30;;;2.10;97.20;;;;;;5073408;28;20264;-95
2021/04/05 03:50:19;;;;;;;7.78;4.20;;;2.20;97.10;;;;;;5074484;28;20239;-95
2021/04/05 03:52:50;;;;;;;6.55;5.00;;;2.40;96.90;;;;;;5079776;28;20237;-94
2021/04/05 03:55:21;;;;;;;9.93;5.00;;;2.60;96.70;;;;;;5080174;28;20224;-95
2021/04/05 03:57:49;;;;;;;7.30;4.90;;;2.80;96.40;;;;;;5080179;28;20185;-93
2021/04/05 04:00:20;;;;;;;7.80;4.47;;;2.90;96.10;;;;;;5077762;28;20211;-92
2021/04/05 04:02:51;;;;;;;7.25;4.80;;;3.00;95.90;;;;;;5072688;28;20215;-93
2021/04/05 04:05:26;;;;;;;5.55;4.03;;;3.00;95.80;;;;;;5079938;28;20184;-94
2021/04/05 04:08:01;;;;;;;9.68;5.03;;;3.00;95.80;;;;;;5079853;28;20188;-94
2021/04/05 04:10:29;;;;;;;7.13;4.90;;;3.00;95.70;;;;;;5079721;28;20219;-93
2021/04/05 04:12:58;;;;;;;5.65;4.93;;;3.00;95.80;;;;;;5072133;28;20197;-92
2021/04/05 04:15:25;;;;;;;5.40;4.10;;;3.00;95.80;;;;;;5065072;28;20795;-92
2021/04/05 04:17:54;;;;;;;7.68;4.75;;;2.90;95.80;;;;;;5064079;28;20765;-92
2021/04/05 04:20:20;;;;;;;6.85;3.85;;;2.90;95.80;;;;;;5063475;28;20219;-94
2021/04/05 04:22:48;;;;;;;9.60;5.30;;;2.90;95.80;;;;;;5065576;28;20208;-92
2021/04/05 04:25:16;;;;;;;5.70;5.10;;;2.90;95.70;;;;;;5066071;28;20213;-91
2021/04/05 04:27:44;;;;;;;7.28;4.60;;;3.00;95.50;;;;;;5065683;28;20236;-93
2021/04/05 04:30:15;;;;;;;8.98;5.10;;;3.10;95.50;;;;;;5063302;28;20270;-92
2021/04/05 04:32:42;;;;;;;7.05;4.57;;;3.30;94.90;;;;;;5065923;28;20208;-91
2021/04/05 04:35:12;;;;;;;7.35;3.78;;;3.30;94.70;;;;;;5066760;28;20212;-93
2021/04/05 04:37:40;;;;;;;8.23;4.65;;;3.40;94.60;;;;;;5065087;28;20209;-92
2021/04/05 04:40:08;;;;;;;9.05;5.13;;;3.50;94.40;;;;;;5068473;28;20236;-92
2021/04/05 04:42:34;;;;;;;7.72;4.60;;;3.50;94.10;;;;;;5068479;28;20250;-90
2021/04/05 04:45:01;;;;;;;10.70;4.80;;;3.50;94.10;;;;;;5068055;28;20209;-91
2021/04/05 04:47:27;;;;;;;5.80;4.18;;;3.50;93.90;;;;;;5063797;28;20201;-92
2021/04/05 04:49:54;;;;;;;7.30;4.82;;;3.50;93.90;;;;;;5067139;28;20290;-91
2021/04/05 04:52:21;;;;;;;7.60;4.07;;;3.60;94.20;;;;;;5068898;28;20285;-92
2021/04/05 04:54:48;;;;;;;6.07;4.57;;;3.60;93.60;;;;;;5067946;28;20205;-92
2021/04/05 04:57:14;;;;;;;7.22;4.28;;;3.70;93.50;;;;;;5071545;28;20262;-92
2021/04/05 04:59:41;;;;;;;7.95;4.35;;;3.70;93.50;;;;;;5069988;28;20239;-94
2021/04/05 05:02:08;;;;;;;6.47;4.55;;;3.70;93.40;;;;;;5070112;28;20255;-93
2021/04/05 05:04:37;;;;;;;7.05;4.00;;;3.70;93.40;;;;;;5071386;28;20205;-91
2021/04/05 05:07:04;;;;;;;5.18;3.97;;;3.80;93.40;;;;;;5073910;28;20185;-92
2021/04/05 05:09:31;;;;;;;6.72;4.05;;;3.80;93.20;;;;;;5072890;28;20221;-93
2021/04/05 05:11:58;;;;;;;8.10;4.65;;;3.80;93.20;;;;;;5072138;28;20292;-91
2021/04/05 05:14:25;;;;;;;5.35;4.38;;;3.80;93.20;;;;;;5072357;28;20225;-92
2021/04/05 05:16:53;;;;;;;8.45;4.70;;;3.80;93.30;;;;;;5075996;28;20189;-91
2021/04/05 05:19:20;;;;;;;6.72;5.07;;;3.80;93.10;;;;;;5076427;28;20205;-91
2021/04/05 05:21:50;;;;;;;4.47;3.90;;;3.80;93.00;;;;;;5074556;28;20236;-93
2021/04/05 05:24:21;;;;;;;7.65;4.53;;;3.80;93.20;;;;;;5073969;28;20213;-93
2021/04/05 05:27:03;;;;;;;6.88;4.22;;;3.80;93.00;;;;;;5075747;28;20224;-92
2021/04/05 05:29:30;;;;;;;5.75;3.47;;;3.80;93.00;;;;;;5072396;28;20783;-92
2021/04/05 05:31:57;;;;;;;9.23;3.97;;;3.90;93.30;;;;;;5068945;28;20237;-92
2021/04/05 05:34:24;;;;;;;5.25;3.78;;;4.00;92.90;;;;;;5067537;28;20197;-93
2021/04/05 05:36:51;;;;;;;5.22;3.85;;;4.00;92.80;;;;;;5073773;28;20212;-92
2021/04/05 05:39:19;;;;;;;9.68;4.95;;;4.10;92.80;;;;;;5072833;28;20239;-91
2021/04/05 05:41:59;;;;;;;5.82;3.80;;;4.20;92.60;;;;;;5071112;28;20249;-91
2021/04/05 05:44:40;;;;;;;6.65;5.13;;;4.30;92.60;;;;;;5065566;28;20199;-93
2021/04/05 05:50:24;;;;;;;9.80;5.05;;;4.40;92.10;;;;;;5048532;22;20263;-74
2021/04/05 05:53:07;;;;;;;7.90;4.60;;;4.60;92.50;;;;;;5050154;28;20255;-73
2021/04/05 05:56:03;;;;;;;5.13;4.63;;;4.70;92.10;;;;;;5050348;28;20205;-74
2021/04/05 05:58:40;;;;;;;5.93;3.58;;;4.90;91.70;;;;;;5048619;28;20248;-73
2021/04/05 06:01:14;;;;;;;5.75;3.92;;;5.00;91.70;;;;;;5050459;28;20319;-73
2021/04/05 06:03:53;;;;;;;9.18;4.63;;;5.10;91.20;;;;;;5050016;28;20211;-73
2021/04/05 06:06:23;;;;;;;8.05;5.05;;;5.10;91.00;;;;;;5050166;28;20205;-73
2021/04/05 06:09:00;;;;;;;8.15;4.22;;;5.10;90.80;;;;;;5048514;28;20263;-74
2021/04/05 06:11:41;;;;;;;8.27;4.25;;;5.20;90.90;;;;;;5047302;28;20242;-74
2021/04/05 06:14:22;;;;;;;4.38;3.88;;;5.20;90.60;;;;;;5048584;28;20205;-73
2021/04/05 06:16:59;;;;;;;4.15;3.75;;;5.30;90.30;;;;;;5048783;28;20201;-73
2021/04/05 06:19:39;;;;;;;5.88;4.40;;;5.40;90.30;;;;;;5049383;28;20098;-73
2021/04/05 06:22:15;;;;;;;8.73;4.50;;;5.40;90.20;;;;;;5049883;28;20228;-71
2021/04/05 06:24:55;;;;;;;8.30;4.70;;;5.50;90.10;;;;;;5049740;28;20205;-71
2021/04/05 06:27:31;;;;;;;5.85;3.80;;;5.60;90.00;;;;;;5049468;28;20227;-71
2021/04/05 06:30:10;;;;;;;4.72;4.20;;;5.60;89.60;;;;;;5048904;28;20676;-72
2021/04/05 06:32:51;;;;;;;7.03;4.80;;;5.70;88.60;;;;;;5049412;28;20201;-71
2021/04/05 06:35:51;;;;;;;4.90;3.85;;;5.90;88.40;;;;;;5049504;28;20201;-70
2021/04/05 06:38:24;;;;;;;4.60;4.03;;;6.00;87.10;;;;;;5035630;28;20240;-70
2021/04/05 06:40:52;;;;;;;7.60;4.30;;;6.10;87.10;;;;;;5049708;28;20941;-72
2021/04/05 06:43:44;;;;;;;5.43;3.53;;;6.20;87.00;;;;;;5049665;28;20208;-71
2021/04/05 06:46:21;;;;;;;7.22;4.15;;;6.30;87.20;;;;;;5049169;28;20614;-71
2021/04/05 06:49:17;;;;;;;8.10;4.05;;;6.30;86.10;;;;;;5048752;28;20228;-71
2021/04/05 06:52:17;;;;;;;4.88;3.90;;;6.30;86.60;;;;;;5049102;28;20262;-71
2021/04/05 06:54:59;;;;;;;4.45;4.00;;;6.40;86.10;;;;;;5047628;28;20213;-71
2021/04/05 06:57:35;;;;;;;5.38;3.83;;;6.40;86.60;;;;;;5048816;28;20225;-71
2021/04/05 07:00:09;;;;;;;4.75;4.13;;;6.50;86.40;;;;;;5048809;28;20692;-70
2021/04/05 07:03:02;;;;;;;5.13;3.95;;;6.60;87.20;;;;;;5048668;28;20230;-72
2021/04/05 07:05:44;;;;;;;6.80;4.00;;;6.70;86.20;;;;;;5048964;28;20224;-70
2021/04/05 07:08:16;;;;;;;7.28;4.55;;;6.90;86.20;;;;;;5048594;28;20228;-72
2021/04/05 07:10:46;;;;;;;5.95;3.90;;;7.10;85.00;;;;;;5048733;28;20201;-71
2021/04/05 07:13:25;;;;;;;7.07;4.30;;;7.20;85.00;;;;;;5048108;28;20786;-70
2021/04/05 07:15:58;;;;;;;6.53;4.50;;;7.30;84.30;;;;;;5044154;28;20656;-71
2021/04/05 07:18:39;;;;;;;6.70;4.32;;;7.50;83.60;;;;;;5047243;28;20209;-71
2021/04/05 07:21:18;;;;;;;5.95;4.18;;;7.60;83.30;;;;;;5045930;28;20731;-71
2021/04/05 07:24:06;;;;;;;5.38;3.67;;;7.70;82.90;;;;;;5045197;28;20565;-71
2021/04/05 07:26:39;;;;;;;7.07;4.53;;;7.90;82.80;;;;;;5048199;28;20197;-71
2021/04/05 07:29:11;;;;;;;6.50;4.43;;;7.90;83.50;;;;;;5039379;28;20232;-72
2021/04/05 07:31:44;;;;;;;10.05;4.70;;;8.10;82.80;;;;;;5045239;28;20190;-71
2021/04/05 07:34:23;;;;;;;6.20;4.15;;;8.30;82.50;;;;;;5044934;28;20205;-71
2021/04/05 07:36:55;;;;;;;5.93;3.95;;;8.50;81.30;;;;;;5043954;28;20240;-70
2021/04/05 07:39:27;;;;;;;9.77;4.10;;;8.60;81.20;;;;;;5043009;28;20232;-71
2021/04/05 07:41:58;;;;;;;8.30;4.15;;;8.60;80.00;;;;;;5043277;28;20228;-71
2021/04/05 07:44:33;;;;;;;7.90;4.00;;;8.70;80.10;;;;;;5045370;28;20295;-70
2021/04/05 07:47:08;;;;;;;6.10;4.78;;;9.00;80.70;;;;;;5045723;28;20216;-70
2021/04/05 07:49:42;;;;;;;10.00;5.22;;;9.30;80.10;;;;;;5044828;28;20208;-71
2021/04/05 07:52:20;;;;;;;5.68;3.80;;;9.70;78.90;;;;;;5045156;28;20193;-70
2021/04/05 07:54:47;;;;;;;7.43;4.70;;;10.10;76.40;;;;;;5045187;28;20212;-70
2021/04/05 07:57:24;;;;;;;5.60;4.20;;;10.40;76.20;;;;;;5039623;28;20213;-71
2021/04/05 07:59:59;;;;;;;7.30;5.38;;;10.70;75.70;;;;;;5039229;28;20209;-70
2021/04/05 08:02:36;;;;;;;6.15;4.20;;;10.80;75.70;;;;;;5042534;28;20622;-71
2021/04/05 08:05:19;;;;;;;6.97;4.57;;;11.20;74.70;;;;;;5040247;28;20204;-71
2021/04/05 08:08:01;;;;;;;7.65;4.40;;;11.50;74.20;;;;;;5039269;28;20506;-71
2021/04/05 08:10:34;;;;;;;8.65;4.40;;;11.70;73.20;;;;;;5040665;28;20201;-72
2021/04/05 08:13:20;;;;;;;9.00;4.20;;;11.90;73.50;;;;;;5046315;28;20540;-72
2021/04/05 08:15:56;;;;;;;6.22;4.30;;;12.30;73.50;;;;;;5044503;28;20201;-71
2021/04/05 08:18:28;;;;;;;10.10;4.87;;;12.70;73.10;;;;;;5043818;28;20294;-71
2021/04/05 08:21:02;;;;;;;6.00;4.17;;;13.00;72.60;;;;;;5044947;28;20486;-72
2021/04/05 08:23:39;;;;;;;7.80;4.40;;;13.00;72.20;;;;;;5042390;28;20478;-71
2021/04/05 08:26:22;;;;;;;8.70;3.97;;;13.20;70.20;;;;;;5045072;28;20464;-73
2021/04/05 08:28:52;;;;;;;5.70;3.73;;;13.20;70.30;;;;;;5042672;28;20528;-70
2021/04/05 08:31:41;;;;;;;5.83;3.70;;;13.40;70.10;;;;;;5046801;28;20533;-72
2021/04/05 08:34:23;;;;;;;10.27;4.50;;;13.30;67.40;;;;;;5048128;28;20836;-71
2021/04/05 08:37:00;;;;;;;9.10;4.00;;;13.00;68.90;;;;;;5046373;28;20463;-72
2021/04/05 08:39:31;;;;;;;7.50;3.80;;;12.80;68.60;;;;;;5043647;28;20459;-70
2021/04/05 08:42:05;;;;;;;6.57;3.93;;;12.60;68.60;;;;;;5044548;28;21014;-71
2021/04/05 08:44:38;;;;;;;14.80;4.10;;;12.50;69.10;;;;;;5041847;28;20993;-72
2021/04/05 08:47:08;;;;;;;7.20;3.60;;;12.30;68.50;;;;;;5044412;28;20521;-72
2021/04/05 08:49:36;;;;;;;6.90;3.60;;;12.20;67.80;;;;;;5041593;28;20505;-69
2021/04/05 08:52:09;;;;;;;6.85;3.40;;;12.10;66.90;;;;;;5045123;28;20471;-72
2021/04/05 08:54:38;;;;;;;9.00;3.63;;;12.00;67.60;;;;;;5042821;28;20561;-70
2021/04/05 08:57:09;;;;;;;8.60;4.13;;;11.90;66.80;;;;;;5044191;28;20212;-72
2021/04/05 08:59:39;;;;;;;8.95;3.38;;;11.90;67.00;;;;;;5041675;28;20463;-70
2021/04/05 09:02:15;;;;;;;5.93;3.10;;;11.90;66.50;;;;;;5043624;28;20327;-71
2021/04/05 09:04:44;;;;;;;6.87;3.80;;;11.80;66.80;;;;;;5044290;28;20201;-69
2021/04/05 09:07:18;;;;;;;4.18;3.10;;;11.80;67.40;;;;;;5041542;28;21033;-71
2021/04/05 09:09:50;;;;;;;6.73;3.03;;;11.70;67.20;;;;;;5043208;28;20200;-70
2021/04/05 09:12:18;;;;;;;5.35;3.15;;;11.60;67.00;;;;;;5042066;28;20447;-69
2021/04/05 09:15:21;;;;;;;4.35;3.05;;;11.50;66.90;;;;;;5043433;28;20247;-71
2021/04/05 09:18:05;;;;;;;6.57;3.70;;;11.40;67.50;;;;;;5042691;28;20300;-72
2021/04/05 09:20:48;;;;;;;8.90;4.18;;;11.20;68.30;;;;;;5042945;28;20193;-72
2021/04/05 09:23:33;;;;;;;4.93;3.10;;;11.10;68.50;;;;;;5041056;28;20272;-71
2021/04/05 09:26:35;;;;;;;9.85;4.35;;;11.00;70.00;;;;;;5043416;28;20193;-72
2021/04/05 09:29:19;;;;;;;6.82;3.33;;;11.10;69.80;;;;;;5042488;28;20296;-70
2021/04/05 09:32:27;;;;;;;6.30;3.20;;;11.10;69.00;;;;;;5042644;28;20189;-71
2021/04/05 09:35:34;;;;;;;5.18;3.35;;;11.20;68.60;;;;;;5042467;28;20197;-70
2021/04/05 09:38:11;;;;;;;5.63;3.20;;;11.10;67.50;;;;;;5043044;28;20723;-69
2021/04/05 09:40:59;;;;;;;4.93;3.08;;;11.20;67.80;;;;;;5042170;28;20197;-71
2021/04/05 09:44:03;;;;;;;8.13;3.25;;;11.20;68.50;;;;;;5042622;28;20274;-71
2021/04/05 09:46:50;;;;;;;9.48;3.65;;;11.30;67.30;;;;;;5041356;28;20864;-70
2021/04/05 09:49:25;;;;;;;5.80;3.17;;;11.30;68.10;;;;;;5040978;28;20227;-69
2021/04/05 09:52:33;;;;;;;6.75;2.90;;;11.30;68.10;;;;;;5042494;28;20220;-70
2021/04/05 09:55:04;;;;;;;6.90;3.10;;;11.30;68.00;;;;;;5032135;28;20205;-69
2021/04/05 09:57:36;;;;;;;5.18;3.00;;;11.20;67.70;;;;;;5038958;28;20236;-70
2021/04/05 10:00:10;;;;;;;5.82;3.50;;;11.10;67.30;;;;;;5040385;28;20225;-69
2021/04/05 10:02:43;;;;;;;3.95;3.10;;;11.00;68.50;;;;;;5039300;28;20607;-69
2021/04/05 10:05:13;;;;;;;6.90;4.07;;;11.00;69.10;;;;;;5040721;28;20667;-69
2021/04/05 10:07:42;;;;;;;8.73;3.30;;;10.90;69.50;;;;;;5040842;28;20806;-70
2021/04/05 10:10:12;;;;;;;4.00;2.60;;;10.90;68.40;;;;;;5036840;28;20216;-70
2021/04/05 10:12:40;;;;;;;6.18;3.20;;;10.90;68.40;;;;;;5039696;28;20200;-70
2021/04/05 10:15:11;;;;;;;4.80;3.72;;;11.00;68.60;;;;;;5042286;28;20598;-70
2021/04/05 10:17:37;;;;;;;5.30;3.13;;;11.00;68.50;;;;;;5037459;28;20235;-70
2021/04/05 10:20:06;;;;;;;6.25;3.40;;;10.90;67.30;;;;;;5039708;28;20690;-71
2021/04/05 10:22:40;;;;;;;4.95;2.65;;;10.70;67.80;;;;;;5038807;28;20279;-70
2021/04/05 10:25:08;;;;;;;4.53;2.88;;;10.80;68.40;;;;;;5040076;28;20209;-70
2021/04/05 10:27:35;;;;;;;3.33;3.03;;;10.80;67.10;;;;;;5036316;28;20217;-73
2021/04/05 10:30:06;;;;;;;4.95;3.10;;;10.90;65.90;;;;;;5039648;28;20738;-71
2021/04/05 10:32:33;;;;;;;6.03;3.25;;;10.90;66.10;;;;;;5036696;28;20201;-70
2021/04/05 10:35:01;;;;;;;4.10;3.70;;;10.90;65.10;;;;;;5041031;28;20208;-70
2021/04/05 10:37:32;;;;;;;5.95;3.00;;;10.90;64.50;;;;;;5036484;28;20228;-71
2021/04/05 10:39:59;;;;;;;5.88;2.53;;;10.90;63.70;;;;;;5039415;28;20571;-71
2021/04/05 10:42:31;;;;;;;6.50;3.63;;;11.00;64.40;;;;;;5038174;28;20275;-71
2021/04/05 10:45:05;;;;;;;5.05;3.40;;;11.10;62.10;;;;;;5039522;28;20213;-71
2021/04/05 10:47:39;;;;;;;4.50;2.93;;;11.20;62.30;;;;;;5036695;28;20232;-72
2021/04/05 10:50:07;;;;;;;5.05;2.80;;;11.30;60.80;;;;;;5038608;28;20471;-71
2021/04/05 10:52:39;;;;;;;5.43;3.20;;;11.30;59.80;;;;;;5035289;28;20208;-71
2021/04/05 10:55:17;;;;;;;5.20;3.05;;;11.30;60.40;;;;;;5039244;28;20609;-70
2021/04/05 10:57:45;;;;;;;6.95;3.10;;;11.40;60.60;;;;;;5039335;28;20252;-70
2021/04/05 11:00:17;;;;;;;4.88;2.75;;;11.50;59.90;;;;;;5039486;28;20205;-70
2021/04/05 11:02:51;;;;;;;7.30;3.15;;;11.50;59.30;;;;;;5039151;28;20480;-71
2021/04/05 11:05:20;;;;;;;6.20;3.30;;;11.50;59.00;;;;;;5039565;28;20208;-70
2021/04/05 11:07:56;;;;;;;6.20;2.92;;;11.50;58.40;;;;;;5038272;28;20251;-70
2021/04/05 11:10:23;;;;;;;8.20;2.95;;;11.60;59.60;;;;;;5038733;28;20205;-71
2021/04/05 11:12:54;;;;;;;3.53;3.20;;;11.90;59.40;;;;;;5039307;28;20359;-71
2021/04/05 11:15:23;;;;;;;5.05;2.90;;;11.90;58.90;;;;;;5041903;28;20233;-70
2021/04/05 11:17:52;;;;;;;5.88;3.00;;;12.00;59.10;;;;;;5043121;28;20225;-71
2021/04/05 11:20:21;;;;;;;4.40;3.00;;;12.20;58.50;;;;;;5041244;28;20217;-70
2021/04/05 11:22:55;;;;;;;4.27;3.10;;;12.50;58.30;;;;;;5042659;28;20958;-71
2021/04/05 11:25:28;;;;;;;3.77;2.90;;;12.80;58.10;;;;;;5044633;28;20465;-71
2021/04/05 11:28:06;;;;;;;6.27;3.10;;;13.10;57.20;;;;;;5042996;28;20564;-71
2021/04/05 11:30:35;;;;;;;3.80;2.73;;;13.20;56.80;;;;;;5041744;28;21038;-71
2021/04/05 11:33:02;;;;;;;5.30;3.57;;;13.20;57.70;;;;;;5041700;28;20654;-71
2021/04/05 11:35:31;;;;;;;6.10;3.00;;;13.10;59.20;;;;;;5043231;28;20964;-71
2021/04/05 11:38:00;;;;;;;8.40;3.33;;;13.00;59.90;;;;;;5043661;28;20488;-71
2021/04/05 11:40:28;;;;;;;4.40;2.73;;;12.90;60.80;;;;;;5043198;28;20466;-71
2021/04/05 11:42:58;;;;;;;6.50;3.75;;;12.70;61.20;;;;;;5037578;28;20483;-71
2021/04/05 11:45:30;;;;;;;6.73;3.67;;;12.60;61.50;;;;;;5044807;28;20696;-71
2021/04/05 11:47:58;;;;;;;4.63;3.80;;;12.60;61.50;;;;;;5047823;28;20487;-71
2021/04/05 11:50:27;;;;;;;5.27;2.93;;;12.70;62.00;;;;;;5044299;28;20995;-71
2021/04/05 11:52:57;;;;;;;6.30;3.73;;;12.80;62.20;;;;;;5046477;28;20459;-72
2021/04/05 11:55:28;;;;;;;7.10;4.10;;;12.90;63.40;;;;;;5047492;28;20456;-71
2021/04/05 11:57:59;;;;;;;9.50;4.93;;;12.90;63.90;;;;;;5045230;28;20479;-71
2021/04/05 12:00:29;;;;;;;7.53;4.43;;;12.90;64.30;;;;;;5043036;28;20649;-71
2021/04/05 12:03:09;;;;;;;6.50;4.72;;;12.90;64.70;;;;;;5038802;28;21050;-72
2021/04/05 12:05:40;;;;;;;9.20;5.07;;;12.70;64.40;;;;;;5038460;28;20205;-72
2021/04/05 12:08:13;;;;;;;6.53;4.43;;;12.70;65.00;;;;;;5043762;28;20506;-71
2021/04/05 12:10:42;;;;;;;6.57;4.60;;;12.50;65.80;;;;;;5045639;28;20471;-71
2021/04/05 12:13:13;;;;;;;9.03;5.30;;;12.50;65.40;;;;;;5041763;28;20479;-70
2021/04/05 12:15:41;;;;;;;11.02;5.78;;;12.40;65.00;;;;;;5047317;28;20474;-71
2021/04/05 12:18:10;;;;;;;9.10;5.90;;;12.20;65.40;;;;;;5047232;28;20278;-71
2021/04/05 12:20:37;;;;;;;9.73;5.30;;;12.20;65.60;;;;;;5047382;28;20463;-71
2021/04/05 12:23:07;;;;;;;8.70;5.90;;;12.00;66.40;;;;;;5044970;28;20487;-71
2021/04/05 12:25:37;;;;;;;10.87;5.53;;;12.00;66.70;;;;;;5046827;28;20955;-71
2021/04/05 12:28:06;;;;;;;9.17;6.00;;;12.00;67.00;;;;;;5046655;28;20915;-71
2021/04/05 12:30:33;;;;;;;10.47;5.10;;;11.90;67.80;;;;;;5046206;28;20467;-71
2021/04/05 12:33:03;;;;;;;11.77;5.70;;;11.80;68.50;;;;;;5046062;28;20459;-71
2021/04/05 12:35:31;;;;;;;10.50;5.50;;;11.60;68.50;;;;;;5046618;28;20587;-70
2021/04/05 12:37:59;;;;;;;10.13;5.95;;;11.50;68.90;;;;;;5045780;28;20662;-71
2021/04/05 12:40:28;;;;;;;10.60;6.30;;;11.50;69.40;;;;;;5046311;28;20278;-71
2021/04/05 12:43:01;;;;;;;10.82;6.43;;;11.40;69.70;;;;;;5044282;28;20287;-72
2021/04/05 12:45:28;;;;;;;11.65;6.20;;;11.40;69.90;;;;;;5046507;28;20217;-73
2021/04/05 12:47:55;;;;;;;9.52;6.18;;;11.30;70.60;;;;;;5045856;28;20224;-72
2021/04/05 12:50:25;;;;;;;11.50;6.30;;;11.30;70.70;;;;;;5044993;28;20213;-72
2021/04/05 12:52:58;;;;;;;10.32;6.65;;;11.30;71.00;;;;;;5045144;28;20200;-72
2021/04/05 12:55:27;;;;;;;11.35;6.35;;;11.30;72.00;;;;;;5046406;28;20236;-73
2021/04/05 12:57:56;;;;;;;15.10;7.63;;;11.30;72.20;;;;;;5044590;28;20689;-71
2021/04/05 13:00:23;;;;;;;14.23;7.20;;;11.30;72.50;;;;;;5045218;28;20194;-72
2021/04/05 13:02:58;;;;;;;11.50;7.63;;;11.20;73.40;;;;;;5043769;28;20232;-71
2021/04/05 13:05:33;;;;;;;10.30;7.55;;;11.00;74.20;;;;;;5043853;28;20194;-72
2021/04/05 13:08:05;;;;;;;16.23;7.63;;;10.90;75.10;;;;;;5045287;28;20217;-72
2021/04/05 13:10:38;;;;;;;9.50;6.53;;;10.80;75.70;;;;;;5044794;28;20640;-72
2021/04/05 13:13:11;;;;;;;14.55;8.05;;;10.80;75.80;;;;;;5041047;28;20306;-72
2021/04/05 13:15:40;;;;;;;14.95;8.70;;;10.80;75.90;;;;;;5046436;28;20199;-71
2021/04/05 13:18:10;;;;;;;13.55;8.48;;;10.70;75.90;;;;;;5043261;28;20357;-72
2021/04/05 13:20:41;;;;;;;15.55;8.57;;;10.70;76.70;;;;;;5044918;28;20441;-72
2021/04/05 13:23:10;;;;;;;10.45;7.53;;;10.60;76.60;;;;;;5044323;28;20217;-71
2021/04/05 13:25:40;;;;;;;13.90;8.38;;;10.60;77.10;;;;;;5045959;28;20197;-72